TimeCDT,TemperatureF,Dew PointF,Humidity,Sea Level PressureIn,VisibilityMPH,Wind Direction,Wind SpeedMPH,Gust SpeedMPH,PrecipitationIn,Events,Conditions,WindDirDegrees,DateUTC
12:54 AM,34.0,25.0,70,30.07,6.0,NNW,3.5,-,N/A,,Haze,330,2012-10-31 05:54:00
1:54 AM,33.1,26.1,75,30.07,4.0,NW,3.5,-,N/A,,Haze,310,2012-10-31 06:54:00
2:54 AM,30.9,25.0,79,30.06,9.0,Calm,Calm,-,N/A,,Clear,0,2012-10-31 07:54:00
3:54 AM,28.9,24.1,82,30.08,7.0,NW,4.6,-,N/A,,Clear,310,2012-10-31 08:54:00
4:54 AM,30.0,24.1,79,30.07,8.0,North,4.6,-,N/A,,Clear,350,2012-10-31 09:54:00
5:54 AM,27.0,21.9,81,30.07,8.0,NE,4.6,-,N/A,,Clear,40,2012-10-31 10:54:00
6:54 AM,27.0,23.0,85,30.07,3.0,WNW,3.5,-,N/A,,Clear,290,2012-10-31 11:54:00
7:54 AM,27.0,23.0,85,30.09,4.0,WNW,3.5,-,N/A,,Clear,300,2012-10-31 12:54:00
8:10 AM,26.6,24.8,93,30.07,2.5,Calm,Calm,-,N/A,,Clear,0,2012-10-31 13:10:00
8:17 AM,26.6,23.0,86,30.07,4.0,Calm,Calm,-,N/A,,Clear,0,2012-10-31 13:17:00
8:54 AM,30.9,26.1,82,30.09,5.0,Calm,Calm,-,N/A,,Haze,0,2012-10-31 13:54:00
9:54 AM,39.0,28.9,67,30.09,5.0,Calm,Calm,-,N/A,,Haze,0,2012-10-31 14:54:00
10:54 AM,45.0,30.9,58,30.08,7.0,SSE,4.6,-,N/A,,Clear,160,2012-10-31 15:54:00
11:54 AM,48.9,30.9,50,30.08,7.0,Variable,4.6,-,N/A,,Clear,0,2012-10-31 16:54:00
12:54 PM,54.0,30.9,41,30.05,9.0,SE,4.6,-,N/A,,Clear,140,2012-10-31 17:54:00
1:54 PM,57.9,30.0,35,30.01,8.0,SSW,6.9,-,N/A,,Clear,210,2012-10-31 18:54:00
2:54 PM,59.0,30.9,35,29.99,7.0,Variable,4.6,-,N/A,,Clear,0,2012-10-31 19:54:00
3:54 PM,60.1,30.9,33,29.98,7.0,Variable,3.5,-,N/A,,Clear,0,2012-10-31 20:54:00
4:54 PM,60.1,30.9,33,29.98,7.0,SSW,3.5,-,N/A,,Clear,200,2012-10-31 21:54:00
5:54 PM,57.9,33.1,39,29.99,7.0,South,3.5,-,N/A,,Clear,180,2012-10-31 22:54:00
8:54 PM,41.0,28.9,62,30.00,5.0,SSW,3.5,-,N/A,,Haze,210,2012-11-01 01:54:00
9:54 PM,39.0,28.9,67,30.00,6.0,Calm,Calm,-,N/A,,Haze,0,2012-11-01 02:54:00
10:54 PM,37.9,28.9,70,29.99,7.0,SSE,3.5,-,N/A,,Partly Cloudy,160,2012-11-01 03:54:00
11:54 PM,43.0,32.0,65,29.97,7.0,SE,3.5,-,N/A,,Overcast,140,2012-11-01 04:54:00